Time;durP1;ratioP1;P1;durP2;ratioP2;P2;SDS_P1;SDS_P2;PMS_P1;PMS_P2;Temp;Humidity;BMP_temperature;BMP_pressure;BME280_temperature;BME280_humidity;BME280_pressure;Samples;Min_cycle;Max_cycle;Signal;HPM_P1;HPM_P2
2022/10/25 00:01:26;;;;;;;;;;;;;;;12.65;100.00;101091.31;5034482;28;19978;-42
2022/10/25 00:03:51;;;;;;;;;;;;;;;12.69;100.00;101090.84;5033495;28;20395;-42
2022/10/25 00:06:17;;;;;;;;;;;;;;;12.73;100.00;101093.16;5034436;28;19934;-44
2022/10/25 00:08:42;;;;;;;;;;;;;;;12.76;100.00;101093.63;5032775;28;19928;-44
2022/10/25 00:11:11;;;;;;;;;;;;;;;12.79;100.00;101090.63;5036235;28;19947;-43
2022/10/25 00:13:37;;;;;;;;;;;;;;;12.80;100.00;101088.81;5035806;28;20118;-43
2022/10/25 00:16:02;;;;;;;;;;;;;;;12.78;100.00;101096.16;5035206;28;20043;-46
2022/10/25 00:18:27;;;;;;;;;;;;;;;12.78;100.00;101101.50;5035627;28;19932;-43
2022/10/25 00:20:52;;;;;;;;;;;;;;;12.77;100.00;101099.88;5034636;28;19956;-47
2022/10/25 00:23:18;;;;;;;;;;;;;;;12.82;100.00;101103.69;5034049;28;19935;-43
2022/10/25 00:25:43;;;;;;;;;;;;;;;12.81;100.00;101106.53;5036220;28;20241;-47
2022/10/25 00:28:09;;;;;;;;;;;;;;;12.81;100.00;101107.41;5031674;28;19928;-46
2022/10/25 00:30:34;;;;;;;;;;;;;;;12.78;100.00;101112.25;5034570;28;20290;-47
2022/10/25 00:32:59;;;;;;;;;;;;;;;12.82;100.00;101110.91;5016529;28;20446;-41
2022/10/25 00:35:24;;;;;;;;;;;;;;;12.85;100.00;101108.72;5034490;28;19978;-47
2022/10/25 00:37:50;;;;;;;;;;;;;;;12.85;100.00;101111.41;5026765;28;20004;-44
2022/10/25 00:40:15;;;;;;;;;;;;;;;12.87;100.00;101119.28;5016826;28;20027;-43
2022/10/25 00:42:40;;;;;;;;;;;;;;;12.90;100.00;101107.38;5017057;28;20078;-42
2022/10/25 00:45:25;;;;;;;;;;;;;;;12.91;100.00;101112.56;5022701;28;19917;-45
2022/10/25 00:48:10;;;;;;;;;;;;;;;12.93;100.00;101113.22;5027289;28;20667;-45
2022/10/25 00:50:35;;;;;;;;;;;;;;;12.96;100.00;101114.75;5032927;28;19994;-44
2022/10/25 00:53:05;;;;;;;;;;;;;;;12.96;100.00;101118.25;5034300;28;19948;-47
2022/10/25 00:55:31;;;;;;;;;;;;;;;12.97;100.00;101114.56;5034398;28;20007;-42
2022/10/25 00:58:12;;;;;;;;;;;;;;;12.98;100.00;101115.41;5028806;28;20335;-44
2022/10/25 01:00:37;;;;;;;;;;;;;;;13.00;100.00;101111.56;5032330;28;19923;-43
2022/10/25 01:03:03;;;;;;;;;;;;;;;13.03;100.00;101105.84;5035280;28;19916;-43
2022/10/25 01:05:28;;;;;;;;;;;;;;;13.03;100.00;101105.84;5026114;28;20060;-45
2022/10/25 01:07:53;;;;;;;;;;;;;;;13.04;100.00;101112.06;5012437;28;19928;-45
2022/10/25 01:10:18;;;;;;;;;;;;;;;13.06;100.00;101118.06;5036514;28;19917;-45
2022/10/25 01:12:44;;;;;;;;;;;;;;;13.12;100.00;101116.53;5021096;28;19927;-43
2022/10/25 01:15:11;;;;;;;;;;;;;;;13.16;100.00;101124.09;5037049;28;22410;-44
2022/10/25 01:17:52;;;;;;;;;;;;;;;13.19;100.00;101125.59;5031942;28;19916;-44
2022/10/25 01:20:26;;;;;;;;;;;;;;;13.20;100.00;101119.22;5036978;28;20350;-42
2022/10/25 01:23:18;;;;;;;;;;;;;;;13.22;100.00;101127.91;5037774;28;20396;-45
2022/10/25 01:25:55;;;;;;;;;;;;;;;13.21;100.00;101126.25;5036158;28;19935;-46
2022/10/25 01:28:39;;;;;;;;;;;;;;;13.20;100.00;101129.94;5038355;28;19969;-44
2022/10/25 01:31:04;;;;;;;;;;;;;;;13.18;100.00;101131.97;5051849;28;19927;-45
2022/10/25 01:33:35;;;;;;;;;;;;;;;13.18;100.00;101129.28;5038250;28;20415;-45
2022/10/25 01:36:13;;;;;;;;;;;;;;;13.20;100.00;101140.66;5031684;28;19927;-44
2022/10/25 01:38:38;;;;;;;;;;;;;;;13.20;100.00;101141.53;5035412;28;19931;-45
2022/10/25 01:41:27;;;;;;;;;;;;;;;13.20;100.00;101144.22;5029127;28;20019;-44
2022/10/25 01:43:57;;;;;;;;;;;;;;;13.18;100.00;101140.00;5034689;28;20043;-42
2022/10/25 01:46:22;;;;;;;;;;;;;;;13.17;100.00;101143.69;5036849;28;19916;-44
2022/10/25 01:48:51;;;;;;;;;;;;;;;13.16;100.00;101145.53;5037623;28;19924;-43
2022/10/25 01:51:17;;;;;;;;;;;;;;;13.16;100.00;101148.22;5035340;28;19926;-43
2022/10/25 01:53:49;;;;;;;;;;;;;;;13.13;100.00;101145.88;5033528;28;19908;-44
2022/10/25 01:56:23;;;;;;;;;;;;;;;13.11;100.00;101150.56;5038122;28;20132;-44
2022/10/25 01:58:49;;;;;;;;;;;;;;;13.09;100.00;101152.59;5024108;28;20107;-42
2022/10/25 02:01:20;;;;;;;;;;;;;;;13.09;100.00;101151.78;5037515;28;20015;-44
2022/10/25 02:03:45;;;;;;;;;;;;;;;13.07;100.00;101152.75;5038556;28;19912;-46
2022/10/25 02:06:10;;;;;;;;;;;;;;;13.04;100.00;101144.22;5036228;28;20282;-44
2022/10/25 02:08:41;;;;;;;;;;;;;;;13.07;100.00;101154.63;5036712;28;20209;-44
2022/10/25 02:11:22;;;;;;;;;;;;;;;13.08;100.00;101156.28;5029373;28;19925;-42
2022/10/25 02:14:07;;;;;;;;;;;;;;;13.12;100.00;101159.44;5033651;28;20379;-43
2022/10/25 02:16:37;;;;;;;;;;;;;;;13.13;100.00;101163.81;5037023;28;19917;-42
2022/10/25 02:19:04;;;;;;;;;;;;;;;13.15;100.00;101167.16;5034252;28;19939;-44
2022/10/25 02:21:31;;;;;;;;;;;;;;;13.14;100.00;101169.00;5034583;28;20524;-47
2022/10/25 02:23:57;;;;;;;;;;;;;;;13.12;100.00;101164.81;5026789;28;19917;-42
2022/10/25 02:26:23;;;;;;;;;;;;;;;13.05;100.00;101161.97;5036218;28;19973;-45
2022/10/25 02:28:49;;;;;;;;;;;;;;;13.06;100.00;101159.13;5017761;28;19924;-44
2022/10/25 02:31:16;;;;;;;;;;;;;;;13.05;100.00;101160.16;5037582;28;20382;-44
2022/10/25 02:33:46;;;;;;;;;;;;;;;13.04;100.00;101158.47;5038077;28;20018;-42
2022/10/25 02:36:21;;;;;;;;;;;;;;;13.02;100.00;101163.16;5036001;28;20197;-43
2022/10/25 02:38:48;;;;;;;;;;;;;;;12.95;100.00;101166.66;5035607;28;19928;-46
2022/10/25 02:41:13;;;;;;;;;;;;;;;12.88;100.00;101170.03;5036966;28;20280;-43
2022/10/25 02:43:38;;;;;;;;;;;;;;;12.84;100.00;101170.53;5037178;28;20011;-42
2022/10/25 02:46:14;;;;;;;;;;;;;;;12.79;100.00;101170.22;5036299;28;19966;-45
2022/10/25 02:48:39;;;;;;;;;;;;;;;12.73;100.00;101179.75;5020118;28;19959;-47
2022/10/25 02:51:05;;;;;;;;;;;;;;;12.69;100.00;101179.25;5035235;28;19967;-43
2022/10/25 02:53:31;;;;;;;;;;;;;;;12.68;100.00;101176.75;5036768;28;20394;-42
2022/10/25 02:56:00;;;;;;;;;;;;;;;12.65;100.00;101179.75;5035552;28;20038;-45
2022/10/25 02:58:27;;;;;;;;;;;;;;;12.62;100.00;101175.56;5032903;28;20376;-43
2022/10/25 03:00:52;;;;;;;;;;;;;;;12.56;100.00;101173.56;5035753;28;20011;-46
2022/10/25 03:03:18;;;;;;;;;;;;;;;12.51;100.00;101178.56;5037247;28;20320;-44
2022/10/25 03:05:43;;;;;;;;;;;;;;;12.50;100.00;101184.94;5034657;28;20043;-48
2022/10/25 03:08:08;;;;;;;;;;;;;;;12.46;100.00;101186.28;5036296;28;20508;-44
2022/10/25 03:10:35;;;;;;;;;;;;;;;12.42;100.00;101187.59;5035880;28;19935;-44
2022/10/25 03:13:00;;;;;;;;;;;;;;;12.43;100.00;101181.25;5036474;28;19927;-47
2022/10/25 03:15:26;;;;;;;;;;;;;;;12.44;100.00;101180.22;5036040;28;20015;-44
2022/10/25 03:17:51;;;;;;;;;;;;;;;12.43;100.00;101191.94;5035857;28;20205;-43
2022/10/25 03:20:16;;;;;;;;;;;;;;;12.41;100.00;101191.28;5034970;28;20402;-44
2022/10/25 03:22:41;;;;;;;;;;;;;;;12.36;100.00;101198.97;5035468;28;20328;-44
2022/10/25 03:25:06;;;;;;;;;;;;;;;12.32;100.00;101204.66;5036650;28;19951;-43
2022/10/25 03:27:32;;;;;;;;;;;;;;;12.30;100.00;101200.44;5019280;28;20330;-42
2022/10/25 03:29:57;;;;;;;;;;;;;;;12.27;100.00;101206.13;5033024;28;20019;-46
2022/10/25 03:32:22;;;;;;;;;;;;;;;12.24;100.00;101210.00;5036005;28;19992;-44
2022/10/25 03:34:47;;;;;;;;;;;;;;;12.21;100.00;101212.16;5034622;28;20543;-46
2022/10/25 03:37:12;;;;;;;;;;;;;;;12.16;100.00;101218.00;5035190;28;19964;-43
2022/10/25 03:39:38;;;;;;;;;;;;;;;12.17;100.00;101218.81;5035474;28;19932;-42
2022/10/25 03:42:03;;;;;;;;;;;;;;;12.11;100.00;101223.00;5035926;28;19988;-43
2022/10/25 03:44:28;;;;;;;;;;;;;;;12.09;100.00;101225.84;5036179;28;20385;-42
2022/10/25 03:46:53;;;;;;;;;;;;;;;12.07;100.00;101221.66;5035262;28;19924;-43
2022/10/25 03:49:18;;;;;;;;;;;;;;;12.05;100.00;101226.31;5034284;28;19917;-44
2022/10/25 03:51:44;;;;;;;;;;;;;;;12.03;100.00;101237.19;5028996;28;19913;-43
2022/10/25 03:54:09;;;;;;;;;;;;;;;12.03;100.00;101229.16;5017631;28;20454;-46
2022/10/25 03:56:34;;;;;;;;;;;;;;;12.02;100.00;101242.72;5036032;28;19966;-44
2022/10/25 03:58:59;;;;;;;;;;;;;;;12.01;100.00;101246.38;5035611;28;19924;-45
2022/10/25 04:01:24;;;;;;;;;;;;;;;12.00;100.00;101240.19;5034341;28;19998;-43
2022/10/25 04:03:50;;;;;;;;;;;;;;;11.97;100.00;101235.16;5035457;28;20158;-45
2022/10/25 04:06:15;;;;;;;;;;;;;;;11.97;100.00;101248.53;5034617;28;20103;-43
2022/10/25 04:08:40;;;;;;;;;;;;;;;11.96;100.00;101243.34;5034436;28;19917;-44
2022/10/25 04:11:05;;;;;;;;;;;;;;;11.96;100.00;101238.00;5036042;28;19932;-43
2022/10/25 04:13:30;;;;;;;;;;;;;;;11.94;100.00;101232.78;5035728;28;19952;-44
2022/10/25 04:15:55;;;;;;;;;;;;;;;11.92;100.00;101243.66;5035009;28;19912;-45
2022/10/25 04:18:21;;;;;;;;;;;;;;;11.92;100.00;101246.34;5035793;28;19924;-44
2022/10/25 04:20:46;;;;;;;;;;;;;;;11.89;100.00;101249.28;5034537;28;19917;-45
2022/10/25 04:23:11;;;;;;;;;;;;;;;11.88;100.00;101255.66;5033738;28;20414;-42
2022/10/25 04:25:36;;;;;;;;;;;;;;;11.83;100.00;101257.97;5035939;28;20260;-46
2022/10/25 04:28:02;;;;;;;;;;;;;;;11.83;100.00;101259.78;5033934;28;19917;-46
2022/10/25 04:30:27;;;;;;;;;;;;;;;11.83;100.00;101262.47;5034113;28;19917;-42
2022/10/25 04:32:52;;;;;;;;;;;;;;;11.81;100.00;101257.28;5031406;28;19944;-44
2022/10/25 04:35:18;;;;;;;;;;;;;;;11.83;100.00;101262.47;5033202;28;19920;-46
2022/10/25 04:37:43;;;;;;;;;;;;;;;11.81;100.00;101262.63;5034355;28;20016;-44
2022/10/25 04:40:08;;;;;;;;;;;;;;;11.81;100.00;101256.44;5034123;28;19964;-41
2022/10/25 04:42:34;;;;;;;;;;;;;;;11.80;100.00;101268.16;5016260;28;20096;-46
2022/10/25 04:45:00;;;;;;;;;;;;;;;11.81;100.00;101264.47;5020129;28;20020;-43
2022/10/25 04:47:25;;;;;;;;;;;;;;;11.77;100.00;101259.44;5039053;28;19924;-43
2022/10/25 04:49:50;;;;;;;;;;;;;;;11.75;100.00;101263.28;5036642;28;20373;-44
2022/10/25 04:52:15;;;;;;;;;;;;;;;11.73;100.00;101263.44;5038219;28;20091;-44
2022/10/25 04:54:40;;;;;;;;;;;;;;;11.72;100.00;101272.44;5038690;28;19917;-43
2022/10/25 04:57:06;;;;;;;;;;;;;;;11.71;100.00;101272.59;5036627;28;19960;-47
2022/10/25 04:59:31;;;;;;;;;;;;;;;11.68;100.00;101272.94;5038648;28;20939;-44
2022/10/25 05:01:56;;;;;;;;;;;;;;;11.65;100.00;101267.91;5038017;28;19917;-45
2022/10/25 05:04:21;;;;;;;;;;;;;;;11.64;100.00;101272.41;5038238;28;20387;-43
2022/10/25 05:06:46;;;;;;;;;;;;;;;11.62;100.00;101284.28;5034738;28;20193;-43
2022/10/25 05:09:12;;;;;;;;;;;;;;;11.60;100.00;101281.75;5034739;28;19967;-43
2022/10/25 05:11:37;;;;;;;;;;;;;;;11.58;100.00;101275.72;5039311;28;19990;-46
2022/10/25 05:14:02;;;;;;;;;;;;;;;11.56;100.00;101277.72;5037651;28;21737;-42
2022/10/25 05:16:27;;;;;;;;;;;;;;;11.55;100.00;101276.03;5037008;28;20012;-44
2022/10/25 05:18:54;;;;;;;;;;;;;;;11.53;100.00;101286.88;5035351;28;20438;-42
2022/10/25 05:21:20;;;;;;;;;;;;;;;11.52;100.00;101300.41;5034271;28;19920;-44
2022/10/25 05:23:45;;;;;;;;;;;;;;;11.50;100.00;101310.44;5033892;28;20341;-47
2022/10/25 05:26:17;;;;;;;;;;;;;;;11.48;100.00;101297.22;5030750;28;19999;-43
2022/10/25 05:28:44;;;;;;;;;;;;;;;11.46;100.00;101298.38;5034571;28;19970;-44
2022/10/25 05:31:14;;;;;;;;;;;;;;;11.44;100.00;101306.56;5034926;28;19956;-45
2022/10/25 05:33:39;;;;;;;;;;;;;;;11.43;100.00;101310.22;5035541;28;19966;-42
2022/10/25 05:36:05;;;;;;;;;;;;;;;11.43;100.00;101298.69;5034655;28;19933;-45
2022/10/25 05:38:31;;;;;;;;;;;;;;;11.44;100.00;101306.56;5034639;28;19924;-44
2022/10/25 05:40:58;;;;;;;;;;;;;;;11.44;100.00;101313.72;5019910;28;19913;-45
2022/10/25 05:43:23;;;;;;;;;;;;;;;11.44;100.00;101311.91;5037903;28;19952;-44
2022/10/25 05:45:48;;;;;;;;;;;;;;;11.46;100.00;101306.41;5034287;28;19951;-43
2022/10/25 05:48:14;;;;;;;;;;;;;;;11.46;100.00;101320.59;5036505;28;20403;-42
2022/10/25 05:50:39;;;;;;;;;;;;;;;11.48;100.00;101310.59;5032179;28;19913;-45
2022/10/25 05:53:04;;;;;;;;;;;;;;;11.46;100.00;101320.59;5037543;28;20085;-42
2022/10/25 05:55:30;;;;;;;;;;;;;;;11.45;100.00;101326.94;5036480;28;19916;-42
2022/10/25 05:57:55;;;;;;;;;;;;;;;11.45;100.00;101331.47;5037991;28;20508;-45
2022/10/25 06:00:20;;;;;;;;;;;;;;;11.45;100.00;101336.81;5037465;28;19917;-44
2022/10/25 06:02:45;;;;;;;;;;;;;;;11.44;100.00;101341.31;5031837;28;20544;-43
2022/10/25 06:05:10;;;;;;;;;;;;;;;11.43;100.00;101341.47;5031960;28;19917;-44
2022/10/25 06:07:36;;;;;;;;;;;;;;;11.41;100.00;101346.97;5037445;28;19995;-42
2022/10/25 06:10:01;;;;;;;;;;;;;;;11.41;100.00;101343.47;5001019;28;19921;-41
2022/10/25 06:12:26;;;;;;;;;;;;;;;11.42;100.00;101345.97;5027057;28;20001;-43
2022/10/25 06:14:51;;;;;;;;;;;;;;;11.40;100.00;101345.28;5026314;28;19971;-42
2022/10/25 06:17:17;;;;;;;;;;;;;;;11.41;100.00;101346.16;5037504;28;19916;-44
2022/10/25 06:19:42;;;;;;;;;;;;;;;11.41;100.00;101344.31;5034935;28;19925;-42
2022/10/25 06:22:07;;;;;;;;;;;;;;;11.41;100.00;101348.81;5036969;28;19974;-44
2022/10/25 06:24:32;;;;;;;;;;;;;;;11.40;100.00;101364.00;5031522;28;19917;-42
2022/10/25 06:26:57;;;;;;;;;;;;;;;11.38;100.00;101372.19;5032720;28;19936;-47
2022/10/25 06:29:22;;;;;;;;;;;;;;;11.39;100.00;101365.84;5033311;28;19968;-42
2022/10/25 06:31:48;;;;;;;;;;;;;;;11.39;100.00;101370.38;5033412;28;19925;-46
2022/10/25 06:34:13;;;;;;;;;;;;;;;11.40;100.00;101380.06;5025405;28;19913;-46
2022/10/25 06:36:38;;;;;;;;;;;;;;;11.42;100.00;101369.19;5031653;28;20295;-48
2022/10/25 06:39:04;;;;;;;;;;;;;;;11.42;100.00;101372.72;5029096;28;20450;-48
2022/10/25 06:41:30;;;;;;;;;;;;;;;11.45;100.00;101375.09;5036761;28;19928;-44
2022/10/25 06:43:56;;;;;;;;;;;;;;;11.50;100.00;101383.47;5036658;28;19916;-44
2022/10/25 06:46:26;;;;;;;;;;;;;;;11.52;100.00;101384.19;5030491;28;20327;-44
2022/10/25 06:48:52;;;;;;;;;;;;;;;11.54;100.00;101376.00;5035948;28;19913;-43
2022/10/25 06:51:17;;;;;;;;;;;;;;;11.54;100.00;101376.00;5033563;28;19913;-42
2022/10/25 06:53:42;;;;;;;;;;;;;;;11.55;100.00;101388.38;5035361;28;19931;-43
2022/10/25 06:56:09;;;;;;;;;;;;;;;11.54;100.00;101384.00;5037255;28;20356;-44
2022/10/25 06:58:34;;;;;;;;;;;;;;;11.57;100.00;101384.56;5036410;28;20300;-43
2022/10/25 07:01:01;;;;;;;;;;;;;;;11.59;100.00;101384.38;5035819;28;20436;-43
2022/10/25 07:03:29;;;;;;;;;;;;;;;11.64;100.00;101389.28;5036662;28;20385;-44
2022/10/25 07:05:57;;;;;;;;;;;;;;;11.67;100.00;101395.16;5029408;28;19927;-42
2022/10/25 07:08:22;;;;;;;;;;;;;;;11.68;100.00;101404.88;5028015;28;19921;-43
2022/10/25 07:10:54;;;;;;;;;;;;;;;11.69;100.00;101411.06;5031601;28;19932;-45
2022/10/25 07:13:19;;;;;;;;;;;;;;;11.72;100.00;101416.94;5036597;28;19913;-45
2022/10/25 07:15:45;;;;;;;;;;;;;;;11.73;100.00;101412.47;5035452;28;19939;-42
2022/10/25 07:18:10;;;;;;;;;;;;;;;11.73;100.00;101415.13;5035416;28;20418;-41
2022/10/25 07:20:35;;;;;;;;;;;;;;;11.77;100.00;101414.66;5038435;28;19920;-44
2022/10/25 07:23:00;;;;;;;;;;;;;;;11.81;100.00;101425.88;5035681;28;20033;-43
2022/10/25 07:25:25;;;;;;;;;;;;;;;11.89;100.00;101425.13;5035604;28;19913;-45
2022/10/25 07:27:51;;;;;;;;;;;;;;;11.97;100.00;101422.53;5035318;28;20354;-44
2022/10/25 07:30:16;;;;;;;;;;;;;;;12.05;100.00;101429.78;5035508;28;20393;-47
2022/10/25 07:32:41;;;;;;;;;;;;;;;12.13;100.00;101428.00;5036556;28;19917;-47
2022/10/25 07:35:06;;;;;;;;;;;;;;;12.20;100.00;101436.22;5034890;28;20340;-47
2022/10/25 07:37:31;;;;;;;;;;;;;;;12.27;100.00;101439.13;5034861;28;20365;-43
2022/10/25 07:39:57;;;;;;;;;;;;;;;12.32;100.00;101445.72;5027348;28;20024;-46
2022/10/25 07:42:22;;;;;;;;;;;;;;;12.37;100.00;101447.06;5035567;28;19924;-47
2022/10/25 07:44:47;;;;;;;;;;;;;;;12.42;100.00;101445.59;5024330;28;19995;-43
2022/10/25 07:47:12;;;;;;;;;;;;;;;12.56;100.00;101446.00;5023631;28;19923;-46
2022/10/25 07:49:38;;;;;;;;;;;;;;;12.64;100.00;101446.91;5034355;28;19995;-44
2022/10/25 07:52:04;;;;;;;;;;;;;;;12.72;100.00;101445.25;5021177;28;20303;-46
2022/10/25 07:54:29;;;;;;;;;;;;;;;12.77;100.00;101445.59;5031744;28;19920;-44
2022/10/25 07:56:54;;;;;;;;;;;;;;;12.81;100.00;101453.19;5033728;28;19958;-42
2022/10/25 07:59:20;;;;;;;;;;;;;;;12.87;100.00;101457.88;5035418;28;20336;-46
2022/10/25 08:01:46;;;;;;;;;;;;;;;12.90;100.00;101448.69;5034674;28;19927;-43
2022/10/25 08:04:11;;;;;;;;;;;;;;;12.87;100.00;101457.88;5034571;28;19913;-42
2022/10/25 08:06:36;;;;;;;;;;;;;;;12.89;100.00;101457.72;5035042;28;20384;-45
2022/10/25 08:09:01;;;;;;;;;;;;;;;12.91;100.00;101455.72;5034683;28;19959;-44
2022/10/25 08:11:26;;;;;;;;;;;;;;;12.95;100.00;101459.75;5035008;28;20323;-43
2022/10/25 08:13:52;;;;;;;;;;;;;;;12.95;100.00;101457.09;5033803;28;20294;-43
2022/10/25 08:16:17;;;;;;;;;;;;;;;12.97;100.00;101471.16;5030419;28;19913;-42
2022/10/25 08:18:42;;;;;;;;;;;;;;;12.93;100.00;101463.59;5029711;28;19921;-44
2022/10/25 08:21:08;;;;;;;;;;;;;;;12.91;100.00;101473.66;5025882;28;20233;-45
2022/10/25 08:23:33;;;;;;;;;;;;;;;12.88;100.00;101462.25;5033613;28;19955;-43
2022/10/25 08:25:59;;;;;;;;;;;;;;;12.94;100.00;101470.66;5026309;28;19913;-43
2022/10/25 08:28:24;;;;;;;;;;;;;;;12.97;100.00;101465.78;5033378;28;19925;-43
2022/10/25 08:30:51;;;;;;;;;;;;;;;13.01;100.00;101460.94;5022940;28;20440;-44
2022/10/25 08:33:16;;;;;;;;;;;;;;;13.04;100.00;101466.81;5035858;28;19912;-44
2022/10/25 08:35:41;;;;;;;;;;;;;;;13.06;100.00;101475.53;5012470;28;19921;-44
2022/10/25 08:38:06;;;;;;;;;;;;;;;13.11;100.00;101472.38;5028118;28;19956;-47
2022/10/25 08:40:38;;;;;;;;;;;;;;;13.21;100.00;101477.63;5034520;28;19928;-47
2022/10/25 08:43:06;;;;;;;;;;;;;;;13.34;100.00;101486.06;5035164;28;19913;-43
2022/10/25 08:45:36;;;;;;;;;;;;;;;13.47;100.00;101496.31;5032597;28;19921;-44
2022/10/25 08:48:02;;;;;;;;;;;;;;;13.57;100.00;101482.75;5034634;28;19928;-48
2022/10/25 08:50:39;;;;;;;;;;;;;;;13.60;100.00;101485.13;5034027;28;19913;-44
2022/10/25 08:53:07;;;;;;;;;;;;;;;13.65;100.00;101484.63;5034072;28;20408;-43
2022/10/25 08:55:38;;;;;;;;;;;;;;;13.68;100.00;101490.50;5028685;28;20554;-43
2022/10/25 08:58:05;;;;;;;;;;;;;;;13.72;100.00;101489.16;5034989;28;20406;-45
2022/10/25 09:00:35;;;;;;;;;;;;;;;13.79;100.00;101489.34;5027092;28;20118;-43
2022/10/25 09:03:01;;;;;;;;;;;;;;;13.84;100.00;101495.03;5035551;28;19971;-44
2022/10/25 09:05:46;;;;;;;;;;;;;;;13.87;100.00;101502.78;5033452;28;19920;-44
2022/10/25 09:08:14;;;;;;;;;;;;;;;13.92;100.00;101495.03;5033757;28;20011;-43
2022/10/25 09:10:42;;;;;;;;;;;;;;;14.09;100.00;101498.56;5028422;28;20196;-44
2022/10/25 09:13:16;;;;;;;;;;;;;;;14.18;100.00;101504.78;5035345;28;20193;-46
2022/10/25 09:15:42;;;;;;;;;;;;;;;14.16;100.00;101510.31;5033937;28;19917;-45
2022/10/25 09:18:13;;;;;;;;;;;;;;;14.19;100.00;101509.16;5035348;28;19919;-48
2022/10/25 09:20:44;;;;;;;;;;;;;;;14.26;100.00;101510.16;5023139;28;19940;-45
2022/10/25 09:23:17;;;;;;;;;;;;;;;14.31;100.00;101515.03;5026306;28;20410;-44
2022/10/25 09:25:50;;;;;;;;;;;;;;;14.31;100.00;101523.09;5034715;28;19917;-46
2022/10/25 09:28:20;;;;;;;;;;;;;;;14.35;100.00;101525.25;5017980;28;19913;-44
2022/10/25 09:30:45;;;;;;;;;;;;;;;14.32;100.00;101522.94;5030269;28;19963;-44
2022/10/25 09:33:16;;;;;;;;;;;;;;;14.32;100.00;101530.13;5034204;28;19944;-46
2022/10/25 09:35:52;;;;;;;;;;;;;;;14.25;100.00;101529.13;5026741;28;19920;-43
2022/10/25 09:38:35;;;;;;;;;;;;;;;14.14;100.00;101533.84;5037111;28;19913;-42
2022/10/25 09:41:02;;;;;;;;;;;;;;;14.16;100.00;101539.03;5038149;28;20298;-42
2022/10/25 09:43:34;;;;;;;;;;;;;;;14.22;100.00;101537.53;5019597;28;19928;-43
2022/10/25 09:46:11;;;;;;;;;;;;;;;14.29;100.00;101530.47;5036954;28;20490;-42
2022/10/25 09:48:45;;;;;;;;;;;;;;;14.42;100.00;101536.16;5037093;28;19989;-43
2022/10/25 09:51:20;;;;;;;;;;;;;;;14.53;100.00;101543.06;5034574;28;20342;-42
2022/10/25 09:53:45;;;;;;;;;;;;;;;14.54;100.00;101539.34;5035796;28;20330;-42
2022/10/25 09:56:11;;;;;;;;;;;;;;;14.46;100.00;101542.91;5035285;28;19913;-45
2022/10/25 09:58:38;;;;;;;;;;;;;;;14.51;100.00;101540.53;5032218;28;19921;-44
2022/10/25 10:01:04;;;;;;;;;;;;;;;14.64;100.00;101544.56;5037093;28;20325;-44
2022/10/25 10:03:31;;;;;;;;;;;;;;;14.66;100.00;101554.16;5035593;28;19925;-45
2022/10/25 10:05:59;;;;;;;;;;;;;;;14.64;100.00;101550.78;5030465;28;20011;-45
2022/10/25 10:08:24;;;;;;;;;;;;;;;14.53;100.00;101545.75;5037469;28;20008;-44
2022/10/25 10:10:51;;;;;;;;;;;;;;;14.60;100.00;101551.31;5035079;28;20003;-46
2022/10/25 10:13:16;;;;;;;;;;;;;;;14.61;100.00;101552.97;5017434;28;19959;-46
2022/10/25 10:15:53;;;;;;;;;;;;;;;14.65;100.00;101557.84;5035945;28;20411;-43
2022/10/25 10:18:18;;;;;;;;;;;;;;;14.66;100.00;101566.75;5036830;28;19917;-45
2022/10/25 10:20:58;;;;;;;;;;;;;;;14.66;100.00;101558.69;5032287;28;19967;-43
2022/10/25 10:23:24;;;;;;;;;;;;;;;14.70;100.00;101565.41;5028112;28;20556;-44
2022/10/25 10:25:49;;;;;;;;;;;;;;;14.73;100.00;101573.97;5036912;28;19912;-45
2022/10/25 10:28:14;;;;;;;;;;;;;;;14.72;100.00;101563.38;5036221;28;19919;-44
2022/10/25 10:30:40;;;;;;;;;;;;;;;14.70;100.00;101568.94;5037281;28;19919;-45
2022/10/25 10:33:08;;;;;;;;;;;;;;;14.78;100.00;101568.06;5037798;28;20351;-44
2022/10/25 10:35:34;;;;;;;;;;;;;;;14.85;100.00;101566.38;5035811;28;19920;-44
2022/10/25 10:38:18;;;;;;;;;;;;;;;14.90;100.00;101569.41;5036720;28;20481;-43
2022/10/25 10:40:44;;;;;;;;;;;;;;;14.95;100.00;101571.56;5024105;28;20482;-44
2022/10/25 10:43:21;;;;;;;;;;;;;;;14.97;100.00;101579.44;5037343;28;19928;-46
2022/10/25 10:45:50;;;;;;;;;;;;;;;14.89;100.00;101580.31;5036422;28;20414;-44
2022/10/25 10:48:19;;;;;;;;;;;;;;;14.85;100.00;101579.84;5029256;28;19921;-44
2022/10/25 10:50:49;;;;;;;;;;;;;;;14.78;100.00;101586.06;5020677;28;20382;-42
2022/10/25 10:53:19;;;;;;;;;;;;;;;14.78;100.00;101592.25;5031853;28;19936;-44
2022/10/25 10:55:45;;;;;;;;;;;;;;;14.93;100.00;101581.66;5016100;28;20019;-47
2022/10/25 10:58:15;;;;;;;;;;;;;;;15.25;100.00;101569.13;5035447;28;19951;-42
2022/10/25 11:00:47;;;;;;;;;;;;;;;15.47;100.00;101584.47;5018916;28;19936;-44
2022/10/25 11:03:31;;;;;;;;;;;;;;;15.61;100.00;101582.06;5031764;28;19928;-45
2022/10/25 11:05:58;;;;;;;;;;;;;;;15.71;100.00;101576.47;5031259;28;20156;-42
2022/10/25 11:08:24;;;;;;;;;;;;;;;15.83;100.00;101572.38;5027087;28;19948;-46
2022/10/25 11:10:49;;;;;;;;;;;;;;;15.95;100.00;101576.34;5030256;28;20414;-43
2022/10/25 11:13:15;;;;;;;;;;;;;;;16.20;100.00;101582.38;5018250;28;19913;-43
2022/10/25 11:15:43;;;;;;;;;;;;;;;16.37;100.00;101569.63;5036377;28;19905;-46
2022/10/25 11:18:10;;;;;;;;;;;;;;;16.45;100.00;101584.91;5036558;28;19974;-44
2022/10/25 11:20:47;;;;;;;;;;;;;;;16.54;100.00;101580.28;5035193;28;19916;-43
2022/10/25 11:23:17;;;;;;;;;;;;;;;16.60;100.00;101574.97;5032236;28;20346;-46
2022/10/25 11:25:56;;;;;;;;;;;;;;;16.64;100.00;101580.84;5034859;28;20138;-45
2022/10/25 11:28:35;;;;;;;;;;;;;;;16.58;100.00;101582.44;5035194;28;20083;-44
2022/10/25 11:31:18;;;;;;;;;;;;;;;16.69;100.00;101583.84;5030136;28;20395;-46
2022/10/25 11:33:47;;;;;;;;;;;;;;;16.84;100.00;101581.19;5035237;28;19919;-43
2022/10/25 11:36:24;;;;;;;;;;;;;;;16.84;100.00;101583.03;5024574;28;19944;-44
2022/10/25 11:38:55;;;;;;;;;;;;;;;16.78;100.00;101577.34;5036006;28;19917;-42
2022/10/25 11:41:26;;;;;;;;;;;;;;;16.78;100.00;101582.75;5029713;28;19921;-45
2022/10/25 11:44:09;;;;;;;;;;;;;;;16.70;100.00;101573.88;5026968;28;19916;-45
2022/10/25 11:46:35;;;;;;;;;;;;;;;16.85;100.00;101577.44;5032348;28;19939;-44
2022/10/25 11:49:03;;;;;;;;;;;;;;;17.00;100.00;101582.03;5026161;28;20808;-46
2022/10/25 11:51:31;;;;;;;;;;;;;;;17.14;100.00;101587.44;5028626;28;20394;-44
2022/10/25 11:54:08;;;;;;;;;;;;;;;17.41;100.00;101576.97;5033661;28;19939;-43
2022/10/25 11:56:33;;;;;;;;;;;;;;;17.59;100.00;101576.59;5035069;28;19995;-43
2022/10/25 11:59:25;;;;;;;;;;;;;;;17.89;100.00;101569.28;5034690;28;20352;-43
2022/10/25 12:01:57;;;;;;;;;;;;;;;18.13;100.00;101580.72;5025876;28;20251;-45
2022/10/25 12:04:25;;;;;;;;;;;;;;;18.31;100.00;101572.13;5031503;28;19938;-43
2022/10/25 12:06:57;;;;;;;;;;;;;;;18.27;98.27;101576.28;5015933;28;20392;-45
2022/10/25 12:09:31;;;;;;;;;;;;;;;17.91;100.00;101571.78;5032660;28;20359;-46
2022/10/25 12:12:09;;;;;;;;;;;;;;;17.63;100.00;101577.88;5031278;28;19927;-47
2022/10/25 12:14:36;;;;;;;;;;;;;;;17.65;100.00;101572.28;5022492;28;19932;-47
2022/10/25 12:17:03;;;;;;;;;;;;;;;17.74;100.00;101562.22;5026666;28;19912;-46
2022/10/25 12:19:33;;;;;;;;;;;;;;;17.70;100.00;101573.41;5015673;28;20006;-44
2022/10/25 12:21:59;;;;;;;;;;;;;;;17.57;100.00;101572.41;5022559;28;20287;-43
2022/10/25 12:24:45;;;;;;;;;;;;;;;17.42;100.00;101573.25;5035709;28;19924;-45
2022/10/25 12:27:12;;;;;;;;;;;;;;;17.30;100.00;101577.47;5026235;28;20413;-45
2022/10/25 12:29:40;;;;;;;;;;;;;;;17.23;100.00;101573.84;5035269;28;20221;-47
2022/10/25 12:32:11;;;;;;;;;;;;;;;17.32;100.00;101578.94;5036035;28;19920;-46